sensor_id;sensor_type;location;lat;lon;timestamp;temperature;humidity
49413;DHT22;35493;50.276;9.372;2024-03-23T00:56:24;8.50;81.50
49413;DHT22;35493;50.276;9.372;2024-03-23T00:58:58;8.40;81.60
49413;DHT22;35493;50.276;9.372;2024-03-23T01:01:30;8.40;81.70
49413;DHT22;35493;50.276;9.372;2024-03-23T01:04:03;8.40;81.70
49413;DHT22;35493;50.276;9.372;2024-03-23T01:06:35;8.30;81.70
49413;DHT22;35493;50.276;9.372;2024-03-23T01:09:08;8.40;81.80
49413;DHT22;35493;50.276;9.372;2024-03-23T01:11:44;8.40;81.70
49413;DHT22;35493;50.276;9.372;2024-03-23T01:14:18;8.30;81.90
49413;DHT22;35493;50.276;9.372;2024-03-23T01:16:50;8.20;81.80
49413;DHT22;35493;50.276;9.372;2024-03-23T01:19:24;8.30;82.00
49413;DHT22;35493;50.276;9.372;2024-03-23T01:21:57;8.30;82.30
49413;DHT22;35493;50.276;9.372;2024-03-23T01:24:30;8.30;82.50
49413;DHT22;35493;50.276;9.372;2024-03-23T01:27:03;8.30;82.80
49413;DHT22;35493;50.276;9.372;2024-03-23T01:29:37;8.30;83.00
49413;DHT22;35493;50.276;9.372;2024-03-23T01:32:09;8.30;83.10
49413;DHT22;35493;50.276;9.372;2024-03-23T01:34:42;8.30;83.30
49413;DHT22;35493;50.276;9.372;2024-03-23T01:37:14;8.30;83.60
49413;DHT22;35493;50.276;9.372;2024-03-23T01:39:47;8.40;83.50
49413;DHT22;35493;50.276;9.372;2024-03-23T01:42:20;8.40;83.60
49413;DHT22;35493;50.276;9.372;2024-03-23T01:44:54;8.40;83.60
49413;DHT22;35493;50.276;9.372;2024-03-23T01:47:26;8.40;83.80
49413;DHT22;35493;50.276;9.372;2024-03-23T01:49:53;8.40;83.90
49413;DHT22;35493;50.276;9.372;2024-03-23T01:52:25;8.40;83.80
49413;DHT22;35493;50.276;9.372;2024-03-23T01:54:59;8.40;83.90
49413;DHT22;35493;50.276;9.372;2024-03-23T01:57:32;8.40;84.10
49413;DHT22;35493;50.276;9.372;2024-03-23T02:00:06;8.40;84.30
49413;DHT22;35493;50.276;9.372;2024-03-23T02:02:42;8.40;84.40
49413;DHT22;35493;50.276;9.372;2024-03-23T02:05:16;8.40;84.30
49413;DHT22;35493;50.276;9.372;2024-03-23T02:07:49;8.40;84.40
49413;DHT22;35493;50.276;9.372;2024-03-23T02:10:23;8.50;84.20
49413;DHT22;35493;50.276;9.372;2024-03-23T02:12:56;8.40;84.10
49413;DHT22;35493;50.276;9.372;2024-03-23T02:15:30;8.40;84.30
49413;DHT22;35493;50.276;9.372;2024-03-23T02:18:02;8.50;84.40
49413;DHT22;35493;50.276;9.372;2024-03-23T02:20:36;8.50;84.40
49413;DHT22;35493;50.276;9.372;2024-03-23T02:30:27;8.50;84.60
49413;DHT22;35493;50.276;9.372;2024-03-23T02:33:00;8.50;84.50
49413;DHT22;35493;50.276;9.372;2024-03-23T02:35:32;8.40;84.70
49413;DHT22;35493;50.276;9.372;2024-03-23T02:38:06;8.40;84.70
49413;DHT22;35493;50.276;9.372;2024-03-23T02:40:38;8.50;84.60
49413;DHT22;35493;50.276;9.372;2024-03-23T02:43:11;8.40;84.90
49413;DHT22;35493;50.276;9.372;2024-03-23T02:45:44;8.50;84.90
49413;DHT22;35493;50.276;9.372;2024-03-23T02:48:18;8.50;84.90
49413;DHT22;35493;50.276;9.372;2024-03-23T02:50:50;8.50;84.90
49413;DHT22;35493;50.276;9.372;2024-03-23T02:53:23;8.50;84.90
49413;DHT22;35493;50.276;9.372;2024-03-23T02:55:57;8.50;85.20
49413;DHT22;35493;50.276;9.372;2024-03-23T02:58:30;8.50;85.10
49413;DHT22;35493;50.276;9.372;2024-03-23T03:01:03;8.50;85.20
49413;DHT22;35493;50.276;9.372;2024-03-23T03:03:37;8.50;84.90
49413;DHT22;35493;50.276;9.372;2024-03-23T03:06:09;8.50;84.90
49413;DHT22;35493;50.276;9.372;2024-03-23T03:08:42;8.50;84.80
49413;DHT22;35493;50.276;9.372;2024-03-23T03:11:14;8.50;84.80
49413;DHT22;35493;50.276;9.372;2024-03-23T03:13:54;8.50;84.90
49413;DHT22;35493;50.276;9.372;2024-03-23T03:16:34;8.50;84.90
49413;DHT22;35493;50.276;9.372;2024-03-23T03:19:08;8.50;84.90
49413;DHT22;35493;50.276;9.372;2024-03-23T03:21:41;8.50;84.90
49413;DHT22;35493;50.276;9.372;2024-03-23T03:24:08;8.50;84.80
49413;DHT22;35493;50.276;9.372;2024-03-23T03:26:40;8.40;84.90
49413;DHT22;35493;50.276;9.372;2024-03-23T03:29:13;8.50;85.00
49413;DHT22;35493;50.276;9.372;2024-03-23T03:31:46;8.40;85.00
49413;DHT22;35493;50.276;9.372;2024-03-23T03:34:22;8.40;85.00
49413;DHT22;35493;50.276;9.372;2024-03-23T03:36:54;8.40;84.90
49413;DHT22;35493;50.276;9.372;2024-03-23T03:39:27;8.40;84.90
49413;DHT22;35493;50.276;9.372;2024-03-23T03:41:59;8.40;84.80
49413;DHT22;35493;50.276;9.372;2024-03-23T03:44:33;8.40;84.90
49413;DHT22;35493;50.276;9.372;2024-03-23T03:47:00;8.40;84.90
49413;DHT22;35493;50.276;9.372;2024-03-23T03:49:33;8.40;85.10
49413;DHT22;35493;50.276;9.372;2024-03-23T03:51:59;8.50;85.10
49413;DHT22;35493;50.276;9.372;2024-03-23T03:54:33;8.50;85.00
49413;DHT22;35493;50.276;9.372;2024-03-23T03:57:05;8.50;85.10
49413;DHT22;35493;50.276;9.372;2024-03-23T03:59:38;8.50;85.20
49413;DHT22;35493;50.276;9.372;2024-03-23T04:02:11;8.50;85.30
49413;DHT22;35493;50.276;9.372;2024-03-23T04:04:45;8.40;85.40
49413;DHT22;35493;50.276;9.372;2024-03-23T04:07:17;8.40;85.40
49413;DHT22;35493;50.276;9.372;2024-03-23T04:09:52;8.40;85.50
49413;DHT22;35493;50.276;9.372;2024-03-23T04:12:24;8.30;85.60
49413;DHT22;35493;50.276;9.372;2024-03-23T04:14:57;8.40;85.50
49413;DHT22;35493;50.276;9.372;2024-03-23T04:17:30;8.40;85.50
49413;DHT22;35493;50.276;9.372;2024-03-23T04:20:06;8.40;85.50
49413;DHT22;35493;50.276;9.372;2024-03-23T04:22:43;8.40;85.60
49413;DHT22;35493;50.276;9.372;2024-03-23T04:25:16;8.40;85.60
49413;DHT22;35493;50.276;9.372;2024-03-23T04:27:48;8.30;85.70
49413;DHT22;35493;50.276;9.372;2024-03-23T04:30:21;8.30;85.70
49413;DHT22;35493;50.276;9.372;2024-03-23T04:32:56;8.30;85.80
49413;DHT22;35493;50.276;9.372;2024-03-23T04:35:30;8.30;85.90
49413;DHT22;35493;50.276;9.372;2024-03-23T04:38:02;8.30;85.90
49413;DHT22;35493;50.276;9.372;2024-03-23T04:40:37;8.20;86.00
49413;DHT22;35493;50.276;9.372;2024-03-23T04:43:10;8.30;85.90
49413;DHT22;35493;50.276;9.372;2024-03-23T04:45:43;8.30;86.00
49413;DHT22;35493;50.276;9.372;2024-03-23T04:48:17;8.30;86.00
49413;DHT22;35493;50.276;9.372;2024-03-23T04:50:54;8.40;86.10
49413;DHT22;35493;50.276;9.372;2024-03-23T04:53:28;8.40;86.00
49413;DHT22;35493;50.276;9.372;2024-03-23T04:56:01;8.40;86.00
49413;DHT22;35493;50.276;9.372;2024-03-23T04:58:29;8.40;86.10
49413;DHT22;35493;50.276;9.372;2024-03-23T05:01:02;8.40;86.00
49413;DHT22;35493;50.276;9.372;2024-03-23T05:03:38;8.40;86.20
49413;DHT22;35493;50.276;9.372;2024-03-23T05:06:11;8.40;86.10
49413;DHT22;35493;50.276;9.372;2024-03-23T05:08:44;8.40;86.10
49413;DHT22;35493;50.276;9.372;2024-03-23T05:11:16;8.40;86.40
49413;DHT22;35493;50.276;9.372;2024-03-23T05:13:49;8.40;86.40
49413;DHT22;35493;50.276;9.372;2024-03-23T05:16:21;8.40;86.30
49413;DHT22;35493;50.276;9.372;2024-03-23T05:18:55;8.40;86.50
49413;DHT22;35493;50.276;9.372;2024-03-23T05:21:28;8.40;86.80
49413;DHT22;35493;50.276;9.372;2024-03-23T05:24:01;8.40;87.00
49413;DHT22;35493;50.276;9.372;2024-03-23T05:26:35;8.40;87.30
49413;DHT22;35493;50.276;9.372;2024-03-23T05:29:08;8.50;87.10
49413;DHT22;35493;50.276;9.372;2024-03-23T05:31:49;8.50;87.10
49413;DHT22;35493;50.276;9.372;2024-03-23T05:34:22;8.50;87.20
49413;DHT22;35493;50.276;9.372;2024-03-23T05:36:56;8.50;87.10
49413;DHT22;35493;50.276;9.372;2024-03-23T05:39:22;8.60;86.90
49413;DHT22;35493;50.276;9.372;2024-03-23T05:41:55;8.60;86.50
49413;DHT22;35493;50.276;9.372;2024-03-23T05:44:27;8.60;86.40
49413;DHT22;35493;50.276;9.372;2024-03-23T05:47:00;8.70;86.50
49413;DHT22;35493;50.276;9.372;2024-03-23T05:49:33;8.70;86.80
49413;DHT22;35493;50.276;9.372;2024-03-23T05:52:07;8.70;86.30
49413;DHT22;35493;50.276;9.372;2024-03-23T05:54:39;8.70;86.30
49413;DHT22;35493;50.276;9.372;2024-03-23T05:57:12;8.70;86.60
49413;DHT22;35493;50.276;9.372;2024-03-23T05:59:45;8.80;87.20
49413;DHT22;35493;50.276;9.372;2024-03-23T06:02:18;8.80;86.80
49413;DHT22;35493;50.276;9.372;2024-03-23T06:04:52;8.80;86.40
49413;DHT22;35493;50.276;9.372;2024-03-23T06:07:25;8.80;86.90
49413;DHT22;35493;50.276;9.372;2024-03-23T06:09:57;8.80;86.80
49413;DHT22;35493;50.276;9.372;2024-03-23T06:12:30;8.70;87.00
49413;DHT22;35493;50.276;9.372;2024-03-23T06:15:02;8.70;86.70
49413;DHT22;35493;50.276;9.372;2024-03-23T06:17:35;8.70;86.50
49413;DHT22;35493;50.276;9.372;2024-03-23T06:20:09;8.70;86.20
49413;DHT22;35493;50.276;9.372;2024-03-23T06:22:43;8.70;86.20
49413;DHT22;35493;50.276;9.372;2024-03-23T06:25:15;8.70;85.90
49413;DHT22;35493;50.276;9.372;2024-03-23T06:27:48;8.70;85.30
49413;DHT22;35493;50.276;9.372;2024-03-23T06:30:20;8.70;85.20
49413;DHT22;35493;50.276;9.372;2024-03-23T06:32:53;8.60;85.00
49413;DHT22;35493;50.276;9.372;2024-03-23T06:35:26;8.60;84.80
49413;DHT22;35493;50.276;9.372;2024-03-23T06:38:00;8.60;84.80
49413;DHT22;35493;50.276;9.372;2024-03-23T06:40:32;8.70;84.50
49413;DHT22;35493;50.276;9.372;2024-03-23T06:43:05;8.60;84.20
49413;DHT22;35493;50.276;9.372;2024-03-23T06:45:37;8.60;84.20
49413;DHT22;35493;50.276;9.372;2024-03-23T06:48:10;8.60;83.70
49413;DHT22;35493;50.276;9.372;2024-03-23T06:50:43;8.50;83.30
49413;DHT22;35493;50.276;9.372;2024-03-23T06:53:17;8.50;83.10
49413;DHT22;35493;50.276;9.372;2024-03-23T06:55:50;8.50;83.00
49413;DHT22;35493;50.276;9.372;2024-03-23T06:58:24;8.50;82.70
49413;DHT22;35493;50.276;9.372;2024-03-23T07:00:50;8.50;82.80
49413;DHT22;35493;50.276;9.372;2024-03-23T07:03:23;8.50;82.80
49413;DHT22;35493;50.276;9.372;2024-03-23T07:05:59;8.50;82.60
49413;DHT22;35493;50.276;9.372;2024-03-23T07:08:26;8.50;82.60
49413;DHT22;35493;50.276;9.372;2024-03-23T07:10:58;8.50;82.50
49413;DHT22;35493;50.276;9.372;2024-03-23T07:13:31;8.50;82.70
49413;DHT22;35493;50.276;9.372;2024-03-23T07:16:03;8.60;82.60
49413;DHT22;35493;50.276;9.372;2024-03-23T07:18:36;8.60;82.30
49413;DHT22;35493;50.276;9.372;2024-03-23T07:21:09;8.60;82.40
49413;DHT22;35493;50.276;9.372;2024-03-23T07:23:43;8.50;82.60
49413;DHT22;35493;50.276;9.372;2024-03-23T07:26:17;8.50;82.80
49413;DHT22;35493;50.276;9.372;2024-03-23T07:28:51;8.50;82.60
49413;DHT22;35493;50.276;9.372;2024-03-23T07:31:24;8.60;82.50
49413;DHT22;35493;50.276;9.372;2024-03-23T07:33:59;8.50;82.60
49413;DHT22;35493;50.276;9.372;2024-03-23T07:36:32;8.50;82.90
49413;DHT22;35493;50.276;9.372;2024-03-23T07:39:06;8.60;82.80
49413;DHT22;35493;50.276;9.372;2024-03-23T07:41:39;8.60;82.80
49413;DHT22;35493;50.276;9.372;2024-03-23T07:44:12;8.50;82.70
49413;DHT22;35493;50.276;9.372;2024-03-23T07:46:44;8.50;82.80
49413;DHT22;35493;50.276;9.372;2024-03-23T07:49:17;8.50;82.90
49413;DHT22;35493;50.276;9.372;2024-03-23T07:51:51;8.50;83.00
49413;DHT22;35493;50.276;9.372;2024-03-23T07:54:25;8.50;83.00
49413;DHT22;35493;50.276;9.372;2024-03-23T07:56:57;8.50;83.00
49413;DHT22;35493;50.276;9.372;2024-03-23T07:59:30;8.40;82.80
49413;DHT22;35493;50.276;9.372;2024-03-23T08:02:10;8.40;82.70
49413;DHT22;35493;50.276;9.372;2024-03-23T08:04:43;8.40;82.60
49413;DHT22;35493;50.276;9.372;2024-03-23T08:07:16;8.50;82.30
49413;DHT22;35493;50.276;9.372;2024-03-23T08:09:50;8.50;82.10
49413;DHT22;35493;50.276;9.372;2024-03-23T08:12:22;8.60;81.60
49413;DHT22;35493;50.276;9.372;2024-03-23T08:14:55;8.60;81.10
49413;DHT22;35493;50.276;9.372;2024-03-23T08:17:28;8.70;81.00
49413;DHT22;35493;50.276;9.372;2024-03-23T08:20:01;8.70;80.40
49413;DHT22;35493;50.276;9.372;2024-03-23T08:22:34;8.80;80.20
49413;DHT22;35493;50.276;9.372;2024-03-23T08:25:08;8.80;80.20
49413;DHT22;35493;50.276;9.372;2024-03-23T08:27:40;8.90;79.60
49413;DHT22;35493;50.276;9.372;2024-03-23T08:30:13;8.90;79.60
49413;DHT22;35493;50.276;9.372;2024-03-23T08:32:45;8.90;79.70
49413;DHT22;35493;50.276;9.372;2024-03-23T08:35:19;8.90;79.70
49413;DHT22;35493;50.276;9.372;2024-03-23T08:37:53;8.90;79.80
49413;DHT22;35493;50.276;9.372;2024-03-23T08:40:27;8.80;79.70
49413;DHT22;35493;50.276;9.372;2024-03-23T08:42:59;8.80;79.90
49413;DHT22;35493;50.276;9.372;2024-03-23T08:45:32;8.70;79.80
49413;DHT22;35493;50.276;9.372;2024-03-23T08:48:04;8.70;79.80
49413;DHT22;35493;50.276;9.372;2024-03-23T08:50:38;8.70;80.10
49413;DHT22;35493;50.276;9.372;2024-03-23T08:53:05;8.80;80.10
49413;DHT22;35493;50.276;9.372;2024-03-23T08:55:38;8.80;79.70
49413;DHT22;35493;50.276;9.372;2024-03-23T08:58:11;8.90;79.60
49413;DHT22;35493;50.276;9.372;2024-03-23T09:00:45;9.00;79.30
49413;DHT22;35493;50.276;9.372;2024-03-23T09:03:17;8.90;78.90
49413;DHT22;35493;50.276;9.372;2024-03-23T09:05:50;8.90;78.60
49413;DHT22;35493;50.276;9.372;2024-03-23T09:08:23;8.90;78.70
49413;DHT22;35493;50.276;9.372;2024-03-23T09:10:57;8.80;78.60
49413;DHT22;35493;50.276;9.372;2024-03-23T09:13:29;8.80;78.40
49413;DHT22;35493;50.276;9.372;2024-03-23T09:16:02;8.70;78.50
49413;DHT22;35493;50.276;9.372;2024-03-23T09:18:41;8.80;78.20
49413;DHT22;35493;50.276;9.372;2024-03-23T09:21:14;8.90;78.10
49413;DHT22;35493;50.276;9.372;2024-03-23T09:23:47;8.80;77.70
49413;DHT22;35493;50.276;9.372;2024-03-23T09:26:21;8.80;77.90
49413;DHT22;35493;50.276;9.372;2024-03-23T09:28:53;8.90;77.80
49413;DHT22;35493;50.276;9.372;2024-03-23T09:31:27;8.90;77.60
49413;DHT22;35493;50.276;9.372;2024-03-23T09:33:59;9.00;77.60
49413;DHT22;35493;50.276;9.372;2024-03-23T09:36:32;9.10;77.60
49413;DHT22;35493;50.276;9.372;2024-03-23T09:39:06;9.20;77.00
49413;DHT22;35493;50.276;9.372;2024-03-23T09:41:41;9.20;77.00
49413;DHT22;35493;50.276;9.372;2024-03-23T09:44:15;9.20;77.10
49413;DHT22;35493;50.276;9.372;2024-03-23T09:46:48;9.30;77.10
49413;DHT22;35493;50.276;9.372;2024-03-23T09:49:21;9.30;77.30
49413;DHT22;35493;50.276;9.372;2024-03-23T09:51:53;9.40;77.00
49413;DHT22;35493;50.276;9.372;2024-03-23T09:54:28;9.40;77.10
49413;DHT22;35493;50.276;9.372;2024-03-23T09:57:01;9.40;77.30
49413;DHT22;35493;50.276;9.372;2024-03-23T09:59:34;9.30;77.10
49413;DHT22;35493;50.276;9.372;2024-03-23T10:02:07;9.30;77.00
49413;DHT22;35493;50.276;9.372;2024-03-23T10:04:36;9.40;77.10
49413;DHT22;35493;50.276;9.372;2024-03-23T10:07:11;9.90;76.40
49413;DHT22;35493;50.276;9.372;2024-03-23T10:09:46;10.20;75.70
49413;DHT22;35493;50.276;9.372;2024-03-23T10:12:19;10.60;74.50
49413;DHT22;35493;50.276;9.372;2024-03-23T10:14:53;10.80;74.00
49413;DHT22;35493;50.276;9.372;2024-03-23T10:17:25;10.70;73.80
49413;DHT22;35493;50.276;9.372;2024-03-23T10:19:58;10.60;72.60
49413;DHT22;35493;50.276;9.372;2024-03-23T10:22:31;10.70;71.00
49413;DHT22;35493;50.276;9.372;2024-03-23T10:25:11;10.90;70.70
49413;DHT22;35493;50.276;9.372;2024-03-23T10:27:45;11.30;69.20
49413;DHT22;35493;50.276;9.372;2024-03-23T10:30:31;11.70;68.40
49413;DHT22;35493;50.276;9.372;2024-03-23T10:33:06;11.90;67.90
49413;DHT22;35493;50.276;9.372;2024-03-23T10:35:40;12.10;66.80
49413;DHT22;35493;50.276;9.372;2024-03-23T10:38:12;11.90;65.90
49413;DHT22;35493;50.276;9.372;2024-03-23T10:40:47;11.70;65.70
49413;DHT22;35493;50.276;9.372;2024-03-23T10:43:12;11.50;65.50
49413;DHT22;35493;50.276;9.372;2024-03-23T10:45:46;11.40;65.30
49413;DHT22;35493;50.276;9.372;2024-03-23T10:48:18;11.60;65.10
49413;DHT22;35493;50.276;9.372;2024-03-23T10:50:51;11.90;64.70
49413;DHT22;35493;50.276;9.372;2024-03-23T10:53:25;12.10;64.80
49413;DHT22;35493;50.276;9.372;2024-03-23T10:59:31;12.50;63.60
49413;DHT22;35493;50.276;9.372;2024-03-23T11:02:05;12.50;62.50
49413;DHT22;35493;50.276;9.372;2024-03-23T11:04:40;12.30;61.00
49413;DHT22;35493;50.276;9.372;2024-03-23T11:07:30;12.00;60.50
49413;DHT22;35493;50.276;9.372;2024-03-23T11:10:03;11.80;59.70
49413;DHT22;35493;50.276;9.372;2024-03-23T11:12:56;11.60;59.60
49413;DHT22;35493;50.276;9.372;2024-03-23T11:15:29;11.40;60.50
49413;DHT22;35493;50.276;9.372;2024-03-23T11:18:04;11.30;60.60
49413;DHT22;35493;50.276;9.372;2024-03-23T11:20:36;11.10;60.80
49413;DHT22;35493;50.276;9.372;2024-03-23T11:23:09;10.90;61.60
49413;DHT22;35493;50.276;9.372;2024-03-23T11:25:58;10.70;62.20
49413;DHT22;35493;50.276;9.372;2024-03-23T11:28:26;10.50;63.20
49413;DHT22;35493;50.276;9.372;2024-03-23T11:30:59;10.30;64.80
49413;DHT22;35493;50.276;9.372;2024-03-23T11:33:33;10.10;67.10
49413;DHT22;35493;50.276;9.372;2024-03-23T11:36:08;9.90;68.60
49413;DHT22;35493;50.276;9.372;2024-03-23T11:38:41;10.00;69.60
49413;DHT22;35493;50.276;9.372;2024-03-23T11:41:13;10.00;69.90
49413;DHT22;35493;50.276;9.372;2024-03-23T11:43:46;9.90;70.30
49413;DHT22;35493;50.276;9.372;2024-03-23T11:46:23;9.90;70.40
49413;DHT22;35493;50.276;9.372;2024-03-23T11:48:56;9.90;70.80
49413;DHT22;35493;50.276;9.372;2024-03-23T11:51:28;9.90;71.40
49413;DHT22;35493;50.276;9.372;2024-03-23T11:54:07;9.80;71.80
49413;DHT22;35493;50.276;9.372;2024-03-23T11:56:39;9.70;72.80
49413;DHT22;35493;50.276;9.372;2024-03-23T11:59:12;9.60;73.20
49413;DHT22;35493;50.276;9.372;2024-03-23T12:02:07;9.60;72.30
49413;DHT22;35493;50.276;9.372;2024-03-23T12:04:40;9.70;71.70
49413;DHT22;35493;50.276;9.372;2024-03-23T12:07:13;9.70;71.60
49413;DHT22;35493;50.276;9.372;2024-03-23T12:09:49;10.00;72.10
49413;DHT22;35493;50.276;9.372;2024-03-23T12:12:33;10.30;72.60
49413;DHT22;35493;50.276;9.372;2024-03-23T12:15:07;10.30;71.90
49413;DHT22;35493;50.276;9.372;2024-03-23T12:17:41;10.40;72.00
49413;DHT22;35493;50.276;9.372;2024-03-23T12:20:14;10.40;72.00
49413;DHT22;35493;50.276;9.372;2024-03-23T12:26:18;10.50;71.70
49413;DHT22;35493;50.276;9.372;2024-03-23T12:28:50;10.50;72.20
49413;DHT22;35493;50.276;9.372;2024-03-23T12:31:23;10.50;72.30
49413;DHT22;35493;50.276;9.372;2024-03-23T12:33:58;10.60;71.90
49413;DHT22;35493;50.276;9.372;2024-03-23T12:36:46;10.60;72.00
49413;DHT22;35493;50.276;9.372;2024-03-23T12:39:18;10.60;71.70
49413;DHT22;35493;50.276;9.372;2024-03-23T12:41:58;10.60;71.50
49413;DHT22;35493;50.276;9.372;2024-03-23T12:44:30;10.50;72.10
49413;DHT22;35493;50.276;9.372;2024-03-23T12:47:03;10.60;72.10
49413;DHT22;35493;50.276;9.372;2024-03-23T12:52:55;10.50;71.80
49413;DHT22;35493;50.276;9.372;2024-03-23T12:55:28;10.50;71.90
49413;DHT22;35493;50.276;9.372;2024-03-23T12:58:00;10.60;71.90
49413;DHT22;35493;50.276;9.372;2024-03-23T13:00:33;10.60;72.30
49413;DHT22;35493;50.276;9.372;2024-03-23T13:03:05;10.60;72.00
49413;DHT22;35493;50.276;9.372;2024-03-23T13:05:53;10.60;71.80
49413;DHT22;35493;50.276;9.372;2024-03-23T13:08:43;10.60;71.60
49413;DHT22;35493;50.276;9.372;2024-03-23T13:11:16;10.70;71.70
49413;DHT22;35493;50.276;9.372;2024-03-23T13:13:49;10.80;71.60
49413;DHT22;35493;50.276;9.372;2024-03-23T13:16:23;10.80;71.10
49413;DHT22;35493;50.276;9.372;2024-03-23T13:18:49;10.80;71.10
49413;DHT22;35493;50.276;9.372;2024-03-23T13:21:23;10.90;70.30
49413;DHT22;35493;50.276;9.372;2024-03-23T13:23:57;11.00;70.10
49413;DHT22;35493;50.276;9.372;2024-03-23T13:26:30;11.10;69.60
49413;DHT22;35493;50.276;9.372;2024-03-23T13:29:02;11.10;69.40
49413;DHT22;35493;50.276;9.372;2024-03-23T13:31:35;11.20;69.30
49413;DHT22;35493;50.276;9.372;2024-03-23T13:34:08;11.30;68.30
49413;DHT22;35493;50.276;9.372;2024-03-23T13:36:34;11.40;68.20
49413;DHT22;35493;50.276;9.372;2024-03-23T13:39:09;11.30;67.80
49413;DHT22;35493;50.276;9.372;2024-03-23T13:41:44;11.20;68.20
49413;DHT22;35493;50.276;9.372;2024-03-23T13:44:16;11.10;67.90
49413;DHT22;35493;50.276;9.372;2024-03-23T13:46:49;11.00;67.10
49413;DHT22;35493;50.276;9.372;2024-03-23T13:49:25;10.60;68.10
49413;DHT22;35493;50.276;9.372;2024-03-23T13:51:59;10.10;69.00
49413;DHT22;35493;50.276;9.372;2024-03-23T13:54:34;9.70;70.20
49413;DHT22;35493;50.276;9.372;2024-03-23T13:57:07;9.50;71.40
49413;DHT22;35493;50.276;9.372;2024-03-23T13:59:39;9.20;72.10
49413;DHT22;35493;50.276;9.372;2024-03-23T14:02:12;9.00;73.00
49413;DHT22;35493;50.276;9.372;2024-03-23T14:04:46;8.90;73.00
49413;DHT22;35493;50.276;9.372;2024-03-23T14:07:20;8.70;73.10
49413;DHT22;35493;50.276;9.372;2024-03-23T14:09:47;8.70;73.70
49413;DHT22;35493;50.276;9.372;2024-03-23T14:12:20;8.60;74.00
49413;DHT22;35493;50.276;9.372;2024-03-23T14:14:52;8.70;73.50
49413;DHT22;35493;50.276;9.372;2024-03-23T14:17:25;8.60;73.80
49413;DHT22;35493;50.276;9.372;2024-03-23T14:19:57;8.50;73.90
49413;DHT22;35493;50.276;9.372;2024-03-23T14:22:32;8.40;74.30
49413;DHT22;35493;50.276;9.372;2024-03-23T14:25:07;8.40;74.60
49413;DHT22;35493;50.276;9.372;2024-03-23T14:27:39;8.30;74.50
49413;DHT22;35493;50.276;9.372;2024-03-23T14:30:12;8.20;75.30
49413;DHT22;35493;50.276;9.372;2024-03-23T14:32:45;8.20;75.70
49413;DHT22;35493;50.276;9.372;2024-03-23T14:35:18;8.10;75.80
49413;DHT22;35493;50.276;9.372;2024-03-23T14:37:50;8.10;76.70
49413;DHT22;35493;50.276;9.372;2024-03-23T14:40:25;8.30;76.70
49413;DHT22;35493;50.276;9.372;2024-03-23T14:42:59;8.40;77.00
49413;DHT22;35493;50.276;9.372;2024-03-23T14:45:32;8.60;76.80
49413;DHT22;35493;50.276;9.372;2024-03-23T14:48:05;8.80;76.70
49413;DHT22;35493;50.276;9.372;2024-03-23T14:50:38;8.90;76.50
49413;DHT22;35493;50.276;9.372;2024-03-23T14:53:10;9.00;76.40
49413;DHT22;35493;50.276;9.372;2024-03-23T14:55:48;9.10;77.10
49413;DHT22;35493;50.276;9.372;2024-03-23T14:58:21;9.10;76.40
49413;DHT22;35493;50.276;9.372;2024-03-23T15:01:00;9.10;75.70
49413;DHT22;35493;50.276;9.372;2024-03-23T15:03:32;8.90;76.30
49413;DHT22;35493;50.276;9.372;2024-03-23T15:06:06;8.90;76.60
49413;DHT22;35493;50.276;9.372;2024-03-23T15:08:31;8.90;76.90
49413;DHT22;35493;50.276;9.372;2024-03-23T15:11:31;8.80;77.20
49413;DHT22;35493;50.276;9.372;2024-03-23T15:14:04;8.70;76.90
49413;DHT22;35493;50.276;9.372;2024-03-23T15:16:44;8.70;77.60
49413;DHT22;35493;50.276;9.372;2024-03-23T15:19:10;8.70;77.90
49413;DHT22;35493;50.276;9.372;2024-03-23T15:21:43;8.70;77.60
49413;DHT22;35493;50.276;9.372;2024-03-23T15:24:15;8.70;77.70
49413;DHT22;35493;50.276;9.372;2024-03-23T15:26:50;8.70;77.70
49413;DHT22;35493;50.276;9.372;2024-03-23T15:29:23;8.60;78.30
49413;DHT22;35493;50.276;9.372;2024-03-23T15:31:56;8.60;78.20
49413;DHT22;35493;50.276;9.372;2024-03-23T15:34:28;8.40;78.30
49413;DHT22;35493;50.276;9.372;2024-03-23T15:37:01;8.40;78.50
49413;DHT22;35493;50.276;9.372;2024-03-23T15:39:33;8.40;78.70
49413;DHT22;35493;50.276;9.372;2024-03-23T15:42:08;8.40;78.90
49413;DHT22;35493;50.276;9.372;2024-03-23T15:44:40;8.40;78.90
49413;DHT22;35493;50.276;9.372;2024-03-23T15:47:13;8.40;79.20
49413;DHT22;35493;50.276;9.372;2024-03-23T15:49:46;8.40;79.20
49413;DHT22;35493;50.276;9.372;2024-03-23T15:52:20;8.40;79.40
49413;DHT22;35493;50.276;9.372;2024-03-23T15:54:52;8.40;79.50
49413;DHT22;35493;50.276;9.372;2024-03-23T15:57:27;8.40;79.60
49413;DHT22;35493;50.276;9.372;2024-03-23T15:59:53;8.40;79.60
49413;DHT22;35493;50.276;9.372;2024-03-23T16:02:26;8.40;79.60
49413;DHT22;35493;50.276;9.372;2024-03-23T16:04:59;8.40;79.80
49413;DHT22;35493;50.276;9.372;2024-03-23T16:07:34;8.40;79.90
49413;DHT22;35493;50.276;9.372;2024-03-23T16:10:07;8.40;79.90
49413;DHT22;35493;50.276;9.372;2024-03-23T16:12:43;8.40;80.00
49413;DHT22;35493;50.276;9.372;2024-03-23T16:15:15;8.30;80.20
49413;DHT22;35493;50.276;9.372;2024-03-23T16:17:48;8.30;80.20
49413;DHT22;35493;50.276;9.372;2024-03-23T16:20:22;8.20;80.30
49413;DHT22;35493;50.276;9.372;2024-03-23T16:22:55;8.20;80.40
49413;DHT22;35493;50.276;9.372;2024-03-23T16:25:28;8.20;80.50
49413;DHT22;35493;50.276;9.372;2024-03-23T16:28:03;8.20;80.60
49413;DHT22;35493;50.276;9.372;2024-03-23T16:30:35;8.20;80.70
49413;DHT22;35493;50.276;9.372;2024-03-23T16:33:08;8.10;80.80
49413;DHT22;35493;50.276;9.372;2024-03-23T16:35:41;8.20;80.90
49413;DHT22;35493;50.276;9.372;2024-03-23T16:38:14;8.20;81.10
49413;DHT22;35493;50.276;9.372;2024-03-23T16:40:52;8.20;81.30
49413;DHT22;35493;50.276;9.372;2024-03-23T16:43:27;8.20;81.50
49413;DHT22;35493;50.276;9.372;2024-03-23T16:46:00;8.20;81.60
49413;DHT22;35493;50.276;9.372;2024-03-23T16:48:27;8.20;81.70
49413;DHT22;35493;50.276;9.372;2024-03-23T16:51:00;8.20;81.80
49413;DHT22;35493;50.276;9.372;2024-03-23T16:53:35;8.20;81.70
49413;DHT22;35493;50.276;9.372;2024-03-23T16:56:14;8.20;80.20
49413;DHT22;35493;50.276;9.372;2024-03-23T16:59:08;8.10;79.80
49413;DHT22;35493;50.276;9.372;2024-03-23T17:01:41;8.00;79.40
49413;DHT22;35493;50.276;9.372;2024-03-23T17:04:14;8.10;79.50
49413;DHT22;35493;50.276;9.372;2024-03-23T17:06:47;8.00;80.10
49413;DHT22;35493;50.276;9.372;2024-03-23T17:09:19;8.00;80.70
49413;DHT22;35493;50.276;9.372;2024-03-23T17:12:24;8.00;81.00
49413;DHT22;35493;50.276;9.372;2024-03-23T17:15:05;7.90;81.30
49413;DHT22;35493;50.276;9.372;2024-03-23T17:17:38;7.90;81.50
49413;DHT22;35493;50.276;9.372;2024-03-23T17:20:11;7.80;81.60
49413;DHT22;35493;50.276;9.372;2024-03-23T17:22:44;7.80;81.50
49413;DHT22;35493;50.276;9.372;2024-03-23T17:25:16;7.70;81.40
49413;DHT22;35493;50.276;9.372;2024-03-23T17:27:50;7.70;81.60
49413;DHT22;35493;50.276;9.372;2024-03-23T17:30:24;7.70;81.90
49413;DHT22;35493;50.276;9.372;2024-03-23T17:33:04;7.60;81.80
49413;DHT22;35493;50.276;9.372;2024-03-23T17:35:37;7.70;81.80